Harper, WV (25851)

2:49 PM EDT on March 27, 2017 (GMT -0400)
Fairdale | | Change Station

Elev 1938 ft 37.74 °N, 81.35 °W | Updated 2 seconds ago

Mostly Cloudy
Mostly Cloudy
77.4 °F
Feels Like 79 °F
N
0.0
Wind Variable Wind from SE
Gusts 0.0 mph

Today
High -- | Low -- °F
--% Chance of Precip.
Yesterday
High -- | Low -- °F
Precip. -- in
Pressure 29.98 in
Visibility 10.0 miles
Clouds Few 4200 ft
Mostly Cloudy 8000 ft
Heat Index 79 °F
Dew Point 54 °F
Humidity 45%
Rainfall 0.04 in
Snow Depth Not available.
7:17 AM 7:43 PM
Waning Crescent, 0% visible
METAR KBKW 271751Z AUTO 26009KT 10SM FEW042 BKN080 19/09 A3004 RMK AO2 CIG 050 RWY19 SLP152 T01940094 10211 20111 58015
Pressure 29.98 in
Visibility 10.0 miles
Clouds Few 4200 ft
Mostly Cloudy 8000 ft
Heat Index 79 °F
Dew Point 54 °F
Humidity 45%
Rainfall 0.04 in
Snow Depth Not available.
7:17 AM 7:43 PM
Waning Crescent, 0% visible
METAR KBKW 271751Z AUTO 26009KT 10SM FEW042 BKN080 19/09 A3004 RMK AO2 CIG 050 RWY19 SLP152 T01940094 10211 20111 58015

Get Severe Weather Alerts

Thanks for signing up!

Be on the lookout for a verification email in your inbox.

You'll start receiving the daily forecast at 8 AM.

×

10-Day Weather Forecast

Almanac

Astronomy

Mar. 27, 2017 Rise Set
Actual Time
Civil Twilight
Nautical Twilight
Astronomical Twilight
Moon
Length of Visible Light
Length of Day
Tomorrow will be .
, % of the Moon is Illuminated

Today's Extremes

State Highs State Lows

Community

WunderPhotos

Upload Photos

1,962,540 photos uploaded!

WunderBlog® & News

Nearby

Air Quality

  Air Quality AQ Index Pollutant
Not available.

Snow Depth

Station Depth Elevation

Earthquake Activity

City Distance Mag. Time & Date
Minimum magnitude displayed is 2.5.

Earthquake Activity

City Distance Mag. Time & Date
Minimum magnitude displayed is 2.5.

Coastal Water Temperatures

Place Temperature

Stations

Nearby Weather Stations

Station Location Temp. Windchill Dew Point Humidity Wind Precip. Elev Updated Type
                   

Watches & Warnings

There are currently no watches in effect.